KBGD

Hutchinson County Airport

Borger, Texas, USA
METAR KBGD 201451Z AUTO 02015KT 4SM -SN BR OVC005 M07/M08 A3003 RMK AO2 SLP172 P0000 60000 I3000 T10721083 51051
Observed Flight Rules
Feb-20 @ 14:51 UTC (2 hours ago) Instrument Flight Rules
Wind Visibility Clouds Conditions
20° at 15 knots 4 miles
  • Overcast at 500' AGL
  • Light Snow
  • Mist
Temperatures Readings Precipitation
Current -7°C / 19°F
Dewpoint -8°C / 18°F
Humidity 93%
Altimeter 30.03" Hg
Pressure 1017.2 hPa
Elevation 927
Current Rain 0.005
METAR KBGD 201451Z AUTO 02015KT 4SM -SN BR OVC005 M07/M08 A3003 RMK AO2 SLP172 P0000 60000 I3000 T10721083 51051
Observed Flight Rules
Feb-20 @ 14:51 UTC
(2 hours ago)
IFR
Wind Visibility
20° at 15 knots 4 miles
Clouds
  • Overcast at 500' AGL
Conditions
  • Light Snow
  • Mist
Temperature Dewpoint
-7°C / 19°F -8°C / 18°F
Humidity Altimeter Pressure
93% 30.03" Hg 1017.2 hPa
Current Rain
0.005